createdAt,value
2022-08-19T00:02:31.282Z,8.55
2022-08-19T00:05:18.160Z,8.63
2022-08-19T00:08:04.375Z,10.50
2022-08-19T00:10:50.117Z,9.07
2022-08-19T00:13:36.643Z,8.55
2022-08-19T00:21:16.884Z,8.82
2022-08-19T00:24:02.779Z,12.13
2022-08-19T00:26:48.717Z,12.98
2022-08-19T00:29:34.556Z,12.23
2022-08-19T00:32:20.814Z,10.70
2022-08-19T00:35:06.901Z,8.32
2022-08-19T00:37:52.885Z,11.15
2022-08-19T00:40:38.337Z,12.40
2022-08-19T00:43:27.186Z,13.45
2022-08-19T00:46:12.905Z,14.13
2022-08-19T00:48:59.799Z,13.00
2022-08-19T00:51:49.183Z,11.73
2022-08-19T00:54:37.562Z,14.00
2022-08-19T00:57:33.669Z,13.38
2022-08-19T01:00:20.613Z,11.48
2022-08-19T01:03:11.793Z,14.02
2022-08-19T01:05:57.760Z,12.20
2022-08-19T01:08:43.651Z,13.85
2022-08-19T01:11:32.882Z,17.52
2022-08-19T01:14:19.597Z,13.82
2022-08-19T01:17:05.872Z,14.57
2022-08-19T01:19:52.938Z,14.15
2022-08-19T01:22:41.792Z,14.98
2022-08-19T01:25:40.134Z,12.32
2022-08-19T01:28:34.272Z,12.70
2022-08-19T01:31:32.494Z,12.13
2022-08-19T01:34:19.089Z,14.57
2022-08-19T01:37:11.995Z,16.52
2022-08-19T01:39:57.853Z,17.90
2022-08-19T01:42:43.668Z,15.52
2022-08-19T01:45:32.106Z,14.13
2022-08-19T01:48:17.774Z,16.35
2022-08-19T01:51:04.260Z,15.35
2022-08-19T01:53:52.041Z,11.35
2022-08-19T01:56:37.955Z,10.93
2022-08-19T01:59:25.118Z,10.93
2022-08-19T02:02:11.474Z,16.83
2022-08-19T02:04:57.160Z,12.88
2022-08-19T02:07:43.107Z,15.07
2022-08-19T02:10:28.599Z,13.95
2022-08-19T02:13:14.647Z,15.63
2022-08-19T02:16:00.459Z,13.45
2022-08-19T02:18:50.149Z,14.70
2022-08-19T02:21:36.172Z,20.08
2022-08-19T02:24:21.920Z,11.43
2022-08-19T02:27:07.845Z,11.43
2022-08-19T02:29:53.781Z,17.27
2022-08-19T02:32:44.464Z,13.70
2022-08-19T02:35:31.492Z,13.65
2022-08-19T02:38:26.656Z,15.30
2022-08-19T02:41:16.964Z,15.77
2022-08-19T02:44:28.942Z,13.98
2022-08-19T02:47:11.551Z,14.90
2022-08-19T02:49:57.588Z,17.50
2022-08-19T02:52:43.067Z,14.38
2022-08-19T02:55:28.901Z,13.98
2022-08-19T02:58:16.856Z,13.05
2022-08-19T03:01:02.828Z,16.05
2022-08-19T03:03:48.561Z,13.05
2022-08-19T03:06:38.137Z,14.05
2022-08-19T03:09:23.750Z,15.18
2022-08-19T03:12:10.120Z,12.93
2022-08-19T03:14:55.708Z,10.57
2022-08-19T03:17:41.656Z,15.82
2022-08-19T03:20:27.494Z,12.30
2022-08-19T03:23:13.734Z,12.88
2022-08-19T03:26:15.517Z,10.88
2022-08-19T03:29:05.674Z,13.65
2022-08-19T03:31:53.060Z,14.68
2022-08-19T03:34:39.270Z,13.18
2022-08-19T03:37:24.795Z,15.68
2022-08-19T03:40:16.421Z,14.27
2022-08-19T03:43:03.502Z,13.55
2022-08-19T03:45:49.843Z,14.90
2022-08-19T03:48:37.134Z,15.70
2022-08-19T03:51:30.810Z,15.13
2022-08-19T03:54:20.592Z,14.90
2022-08-19T03:57:07.203Z,16.77
2022-08-19T03:59:53.390Z,14.32
2022-08-19T04:02:39.081Z,15.18
2022-08-19T04:05:24.869Z,17.95
2022-08-19T04:08:19.947Z,16.45
2022-08-19T04:11:12.221Z,17.00
2022-08-19T04:13:58.321Z,16.60
2022-08-19T04:16:45.552Z,18.30
2022-08-19T04:19:32.248Z,15.75
2022-08-19T04:22:19.520Z,16.40
2022-08-19T04:25:05.393Z,15.75
2022-08-19T04:27:51.000Z,15.20
2022-08-19T04:30:48.439Z,15.82
2022-08-19T04:33:34.009Z,15.98
2022-08-19T04:36:23.179Z,17.35
2022-08-19T04:39:11.579Z,19.45
2022-08-19T04:42:15.709Z,18.90
2022-08-19T04:45:01.792Z,18.55
2022-08-19T04:47:57.953Z,18.90
2022-08-19T04:50:45.086Z,19.70
2022-08-19T04:53:37.778Z,17.75
2022-08-19T04:56:27.294Z,16.67
2022-08-19T04:59:12.994Z,18.17
2022-08-19T05:01:58.709Z,19.80
2022-08-19T05:04:44.696Z,23.55
2022-08-19T05:07:30.554Z,23.95
2022-08-19T05:10:16.352Z,20.42
2022-08-19T05:13:02.337Z,21.30
2022-08-19T05:15:58.804Z,17.92
2022-08-19T05:19:03.685Z,19.00
2022-08-19T05:22:08.221Z,20.73
2022-08-19T05:25:11.742Z,20.77
2022-08-19T05:27:58.013Z,20.58
2022-08-19T05:30:47.494Z,24.20
2022-08-19T05:33:33.411Z,21.75
2022-08-19T05:36:20.963Z,21.83
2022-08-19T05:39:08.830Z,21.50
2022-08-19T05:41:58.841Z,28.85
2022-08-19T05:44:45.663Z,24.05
2022-08-19T05:47:31.568Z,25.33
2022-08-19T05:50:18.683Z,23.60
2022-08-19T05:53:04.088Z,26.88
2022-08-19T05:55:49.600Z,26.42
2022-08-19T05:58:36.714Z,26.02
2022-08-19T06:01:22.600Z,25.00
2022-08-19T06:04:09.167Z,25.73
2022-08-19T06:06:55.588Z,31.13
2022-08-19T06:09:43.686Z,28.85
2022-08-19T06:12:45.923Z,28.35
2022-08-19T06:15:31.796Z,27.55
2022-08-19T06:18:17.751Z,29.77
2022-08-19T06:21:05.042Z,26.40
2022-08-19T06:23:52.652Z,26.80
2022-08-19T06:26:42.326Z,27.80
2022-08-19T06:29:30.264Z,24.08
2022-08-19T06:32:18.764Z,23.45
2022-08-19T06:35:05.874Z,24.77
2022-08-19T06:37:51.908Z,26.33
2022-08-19T06:40:39.238Z,23.30
2022-08-19T06:43:29.173Z,23.42
2022-08-19T06:46:17.376Z,21.63
2022-08-19T06:49:03.193Z,26.33
2022-08-19T06:51:50.647Z,26.92
2022-08-19T06:54:55.411Z,25.15
2022-08-19T06:57:42.167Z,27.50
2022-08-19T07:00:28.041Z,25.30
2022-08-19T07:03:13.951Z,27.23
2022-08-19T07:06:09.832Z,23.90
2022-08-19T07:09:08.625Z,27.23
2022-08-19T07:11:55.145Z,27.10
2022-08-19T07:14:40.759Z,28.27
2022-08-19T07:17:27.148Z,25.58
2022-08-19T07:20:14.046Z,29.17
2022-08-19T07:23:00.751Z,25.75
2022-08-19T07:25:53.026Z,24.08
2022-08-19T07:28:40.141Z,28.75
2022-08-19T07:31:38.035Z,26.65
2022-08-19T07:34:24.743Z,26.08
2022-08-19T07:37:10.490Z,25.80
2022-08-19T07:39:56.541Z,26.33
2022-08-19T07:42:42.303Z,30.55
2022-08-19T07:45:29.398Z,31.33
2022-08-19T07:48:15.533Z,30.33
2022-08-19T07:51:05.656Z,29.92
2022-08-19T07:53:51.788Z,29.13
2022-08-19T07:56:37.621Z,28.48
2022-08-19T07:59:24.812Z,30.45
2022-08-19T08:02:10.844Z,31.45
2022-08-19T08:05:14.929Z,29.15
2022-08-19T08:08:19.217Z,30.05
2022-08-19T08:11:07.764Z,32.95
2022-08-19T08:14:01.031Z,32.38
2022-08-19T08:16:52.224Z,34.53
2022-08-19T08:19:38.351Z,32.97
2022-08-19T08:22:48.661Z,30.35
2022-08-19T08:25:36.492Z,32.30
2022-08-19T08:28:22.567Z,29.38
2022-08-19T08:31:09.340Z,32.88
2022-08-19T08:33:55.791Z,35.10
2022-08-19T08:36:46.764Z,33.55
2022-08-19T08:39:33.200Z,41.33
2022-08-19T08:42:28.017Z,36.38
2022-08-19T08:45:17.361Z,32.08
2022-08-19T08:48:22.066Z,37.45
2022-08-19T08:51:25.098Z,33.70
2022-08-19T08:54:20.905Z,37.63
2022-08-19T08:57:15.054Z,29.75
2022-08-19T09:00:06.427Z,27.73
2022-08-19T09:03:02.922Z,24.08
2022-08-19T09:06:11.844Z,28.48
2022-08-19T09:09:11.892Z,25.10
2022-08-19T09:12:07.023Z,26.65
2022-08-19T09:15:11.533Z,26.88
2022-08-19T09:18:02.740Z,25.30
2022-08-19T09:20:48.929Z,28.10
2022-08-19T09:23:34.896Z,21.23
2022-08-19T09:26:23.564Z,31.80
2022-08-19T09:29:22.686Z,25.98
2022-08-19T09:32:08.530Z,27.25
2022-08-19T09:35:14.097Z,26.45
2022-08-19T09:38:00.678Z,27.48
2022-08-19T09:40:46.660Z,27.92
2022-08-19T09:43:44.557Z,27.52
2022-08-19T09:46:33.881Z,25.35
2022-08-19T09:49:22.667Z,23.13
2022-08-19T09:52:11.967Z,23.73
2022-08-19T09:54:59.253Z,22.92
2022-08-19T09:57:45.036Z,19.23
2022-08-19T10:00:31.721Z,22.67
2022-08-19T10:03:17.171Z,19.23
2022-08-19T10:06:05.954Z,18.65
2022-08-19T10:09:01.292Z,19.40
2022-08-19T10:11:54.583Z,17.60
2022-08-19T10:14:40.703Z,15.95
2022-08-19T10:17:27.515Z,20.60
2022-08-19T10:20:17.975Z,20.73
2022-08-19T10:23:04.812Z,31.08
2022-08-19T10:25:50.806Z,16.35
2022-08-19T10:28:40.828Z,23.60
2022-08-19T10:32:00.994Z,21.98
2022-08-19T10:34:48.129Z,22.35
2022-08-19T10:37:35.905Z,17.85
2022-08-19T10:40:21.425Z,19.58
2022-08-19T10:43:06.818Z,16.30
2022-08-19T10:46:00.281Z,20.50
2022-08-19T10:48:48.641Z,15.38
2022-08-19T10:51:54.661Z,21.90
2022-08-19T10:54:59.948Z,14.45
2022-08-19T10:58:02.225Z,13.90
2022-08-19T11:00:56.321Z,13.02
2022-08-19T11:03:42.137Z,16.48
2022-08-19T11:06:27.807Z,13.75
2022-08-19T11:09:15.079Z,23.50
2022-08-19T11:12:03.049Z,16.77
2022-08-19T11:14:50.923Z,15.90
2022-08-19T11:17:37.002Z,13.82
2022-08-19T11:20:24.687Z,17.92
2022-08-19T11:23:10.654Z,21.88
2022-08-19T11:25:57.957Z,20.33
2022-08-19T11:28:44.487Z,14.20
2022-08-19T11:31:32.478Z,13.85
2022-08-19T11:34:22.149Z,14.63
2022-08-19T11:37:09.740Z,12.98
2022-08-19T11:39:55.363Z,13.07
2022-08-19T11:42:56.666Z,14.65
2022-08-19T11:45:42.565Z,11.60
2022-08-19T11:48:28.190Z,13.32
2022-08-19T11:51:17.154Z,16.42
2022-08-19T11:54:05.388Z,12.63
2022-08-19T11:56:50.988Z,15.93
2022-08-19T11:59:36.994Z,14.73
2022-08-19T12:02:24.203Z,14.93
2022-08-19T12:05:12.863Z,14.90
2022-08-19T12:07:58.796Z,17.90
2022-08-19T12:10:46.396Z,18.40
2022-08-19T12:13:32.392Z,15.93
2022-08-19T12:16:24.910Z,18.88
2022-08-19T12:19:10.585Z,12.85
2022-08-19T12:22:01.945Z,13.55
2022-08-19T12:24:47.593Z,12.02
2022-08-19T12:27:40.405Z,21.10
2022-08-19T12:30:27.762Z,13.27
2022-08-19T12:33:14.796Z,16.30
2022-08-19T12:36:06.580Z,15.85
2022-08-19T12:38:53.510Z,13.20
2022-08-19T12:41:51.328Z,14.85
2022-08-19T12:44:42.707Z,11.30
2022-08-19T12:47:28.519Z,13.55
2022-08-19T12:50:14.018Z,12.93
2022-08-19T12:53:00.097Z,12.38
2022-08-19T12:55:45.725Z,13.88
2022-08-19T12:58:31.750Z,14.65
2022-08-19T13:01:21.949Z,14.23
2022-08-19T13:04:09.510Z,14.70
2022-08-19T13:06:55.322Z,16.33
2022-08-19T13:09:43.514Z,16.85
2022-08-19T13:12:29.320Z,14.63
2022-08-19T13:15:20.496Z,16.58
2022-08-19T13:18:11.404Z,17.33
2022-08-19T13:20:57.438Z,14.52
2022-08-19T13:23:43.139Z,18.75
2022-08-19T13:26:29.051Z,14.40
2022-08-19T13:29:33.467Z,18.77
2022-08-19T13:32:37.371Z,15.80
2022-08-19T13:35:23.388Z,16.33
2022-08-19T13:38:11.760Z,16.40
2022-08-19T13:41:08.992Z,13.73
2022-08-19T13:43:56.674Z,9.27
2022-08-19T13:46:46.026Z,11.60
2022-08-19T13:49:32.078Z,10.18
2022-08-19T13:52:17.671Z,13.73
2022-08-19T13:55:05.485Z,11.40
2022-08-19T13:57:53.917Z,13.05
2022-08-19T14:00:44.117Z,12.27
2022-08-19T14:03:29.829Z,13.68
2022-08-19T14:06:15.577Z,13.70
2022-08-19T14:09:03.018Z,16.48
2022-08-19T14:11:48.828Z,10.23
2022-08-19T14:14:39.062Z,10.70
2022-08-19T14:17:24.585Z,14.40
2022-08-19T14:20:17.781Z,11.52
2022-08-19T14:23:07.987Z,9.73
2022-08-19T14:26:00.756Z,9.30
2022-08-19T14:28:50.342Z,14.05
2022-08-19T14:31:36.209Z,13.40
2022-08-19T14:34:23.126Z,8.43
2022-08-19T14:37:14.371Z,11.38
2022-08-19T14:40:00.334Z,14.40
2022-08-19T14:42:45.997Z,9.38
2022-08-19T14:45:38.309Z,8.38
2022-08-19T14:48:24.368Z,11.18
2022-08-19T14:51:15.462Z,9.55
2022-08-19T14:54:01.610Z,7.80
2022-08-19T14:56:47.384Z,10.57
2022-08-19T14:59:33.073Z,10.77
2022-08-19T15:02:33.750Z,6.50
2022-08-19T15:05:21.241Z,10.10
2022-08-19T15:08:07.392Z,11.15
2022-08-19T15:10:53.498Z,10.27
2022-08-19T15:13:40.674Z,9.30
2022-08-19T15:16:27.057Z,9.20
2022-08-19T15:19:12.818Z,8.73
2022-08-19T15:21:59.013Z,9.07
2022-08-19T15:24:47.934Z,8.52
2022-08-19T15:27:34.026Z,9.68
2022-08-19T15:30:23.716Z,8.85
2022-08-19T15:33:09.378Z,6.68
2022-08-19T15:35:54.864Z,8.50
2022-08-19T15:38:46.002Z,7.90
2022-08-19T15:41:33.177Z,5.40
2022-08-19T15:44:22.077Z,5.03
2022-08-19T15:47:07.954Z,5.70
2022-08-19T15:49:57.719Z,4.90
2022-08-19T15:52:49.548Z,5.47
2022-08-19T15:55:44.467Z,8.52
2022-08-19T15:58:49.066Z,6.75
2022-08-19T16:01:37.145Z,6.75
2022-08-19T16:04:44.670Z,5.90
2022-08-19T16:07:30.686Z,7.93
2022-08-19T16:10:26.628Z,5.75
2022-08-19T16:13:13.424Z,5.82
2022-08-19T16:15:59.987Z,5.03
2022-08-19T16:18:47.258Z,5.10
2022-08-19T16:21:34.358Z,5.63
2022-08-19T16:24:22.593Z,8.13
2022-08-19T16:27:08.315Z,5.00
2022-08-19T16:29:54.385Z,5.80
2022-08-19T16:32:44.421Z,6.15
2022-08-19T16:35:30.281Z,5.80
2022-08-19T16:38:15.960Z,4.07
2022-08-19T16:41:02.010Z,5.22
2022-08-19T16:43:49.765Z,6.97
2022-08-19T16:46:37.196Z,4.22
2022-08-19T16:49:53.915Z,7.78
2022-08-19T16:52:32.055Z,7.85
2022-08-19T16:55:18.710Z,6.85
2022-08-19T16:58:05.014Z,6.20
2022-08-19T17:00:51.390Z,5.13
2022-08-19T17:03:39.810Z,5.78
2022-08-19T17:06:30.848Z,6.90
2022-08-19T17:09:18.536Z,5.90
2022-08-19T17:12:12.748Z,7.30
2022-08-19T17:14:58.522Z,6.28
2022-08-19T17:17:44.614Z,8.48
2022-08-19T17:20:31.288Z,4.72
2022-08-19T17:23:17.073Z,5.75
2022-08-19T17:26:02.805Z,4.57
2022-08-19T17:28:52.273Z,5.65
2022-08-19T17:31:38.217Z,5.30
2022-08-19T17:34:24.606Z,6.22
2022-08-19T17:37:10.129Z,5.22
2022-08-19T17:39:56.831Z,6.65
2022-08-19T17:42:42.595Z,6.10
2022-08-19T17:45:28.701Z,4.97
2022-08-19T17:48:15.626Z,6.07
2022-08-19T17:51:12.930Z,6.30
2022-08-19T17:53:59.173Z,9.68
2022-08-19T17:56:46.260Z,5.80
2022-08-19T17:59:31.771Z,6.07
2022-08-19T18:02:21.845Z,7.65
2022-08-19T18:05:08.397Z,6.85
2022-08-19T18:07:54.539Z,10.02
2022-08-19T18:10:41.448Z,8.32
2022-08-19T18:13:27.389Z,8.65
2022-08-19T18:16:13.480Z,8.80
2022-08-19T18:18:59.665Z,6.47
2022-08-19T18:21:47.001Z,8.57
2022-08-19T18:24:32.688Z,10.05
2022-08-19T18:27:18.532Z,7.50
2022-08-19T18:30:06.317Z,7.93
2022-08-19T18:32:53.916Z,7.85
2022-08-19T18:35:45.156Z,6.65
2022-08-19T18:38:49.753Z,5.40
2022-08-19T18:41:55.556Z,5.13
2022-08-19T18:45:00.143Z,4.05
2022-08-19T18:48:04.905Z,4.90
2022-08-19T18:50:51.150Z,7.32
2022-08-19T18:53:39.482Z,3.63
2022-08-19T18:56:31.872Z,3.92
2022-08-19T18:59:21.241Z,7.25
2022-08-19T19:02:07.398Z,4.43
2022-08-19T19:04:53.099Z,4.30
2022-08-19T19:07:39.901Z,3.35
2022-08-19T19:10:25.347Z,4.47
2022-08-19T19:13:16.212Z,6.30
2022-08-19T19:16:01.985Z,5.47
2022-08-19T19:18:52.638Z,4.93
2022-08-19T19:21:38.438Z,7.63
2022-08-19T19:24:30.502Z,5.00
2022-08-19T19:27:20.342Z,9.07
2022-08-19T19:30:09.704Z,8.50
2022-08-19T19:32:56.337Z,5.05
2022-08-19T19:35:44.893Z,4.47
2022-08-19T19:38:32.690Z,6.15
2022-08-19T19:41:24.544Z,4.25
2022-08-19T19:44:30.849Z,4.55
2022-08-19T19:47:18.975Z,6.60
2022-08-19T19:50:20.628Z,5.10
2022-08-19T19:53:06.454Z,4.60
2022-08-19T19:55:58.917Z,7.07
2022-08-19T19:58:44.640Z,7.38
2022-08-19T20:01:30.574Z,6.47
2022-08-19T20:04:17.091Z,4.70
2022-08-19T20:07:02.815Z,4.82
2022-08-19T20:09:59.655Z,8.13
2022-08-19T20:12:46.459Z,6.03
2022-08-19T20:15:32.623Z,7.32
2022-08-19T20:18:18.352Z,6.05
2022-08-19T20:21:04.072Z,7.72
2022-08-19T20:24:08.532Z,6.57
2022-08-19T20:26:55.993Z,7.22
2022-08-19T20:29:44.546Z,5.88
2022-08-19T20:32:30.575Z,9.50
2022-08-19T20:35:19.398Z,5.85
2022-08-19T20:38:07.601Z,8.80
2022-08-19T20:40:53.355Z,9.13
2022-08-19T20:43:39.533Z,7.10
2022-08-19T20:46:29.062Z,9.43
2022-08-19T20:49:14.650Z,8.38
2022-08-19T20:52:01.292Z,5.35
2022-08-19T20:54:46.937Z,8.93
2022-08-19T20:57:32.953Z,7.85
2022-08-19T21:00:19.219Z,9.57
2022-08-19T21:03:05.576Z,7.95
2022-08-19T21:05:51.353Z,14.75
2022-08-19T21:08:37.875Z,11.63
2022-08-19T21:11:23.854Z,13.18
2022-08-19T21:14:09.938Z,11.13
2022-08-19T21:16:56.039Z,10.57
2022-08-19T21:19:42.024Z,10.80
2022-08-19T21:22:27.813Z,16.45
2022-08-19T21:25:13.829Z,15.25
2022-08-19T21:27:59.893Z,8.43
2022-08-19T21:30:46.364Z,13.30
2022-08-19T21:33:32.900Z,12.30
2022-08-19T21:36:18.747Z,14.05
2022-08-19T21:39:04.650Z,14.15
2022-08-19T21:41:50.676Z,11.20
2022-08-19T21:44:36.937Z,11.35
2022-08-19T21:47:23.148Z,8.43
2022-08-19T21:50:09.531Z,11.95
2022-08-19T21:52:55.372Z,13.90
2022-08-19T21:55:41.199Z,11.05
2022-08-19T21:58:28.142Z,9.98
2022-08-19T22:01:16.221Z,10.43
2022-08-19T22:04:02.201Z,8.00
2022-08-19T22:06:48.023Z,12.23
2022-08-19T22:09:33.647Z,13.00
2022-08-19T22:12:24.050Z,9.75
2022-08-19T22:15:12.809Z,9.27
2022-08-19T22:17:59.037Z,10.63
2022-08-19T22:20:45.329Z,9.75
2022-08-19T22:23:31.191Z,8.30
2022-08-19T22:26:17.478Z,6.63
2022-08-19T22:29:03.228Z,7.03
2022-08-19T22:31:54.470Z,8.48
2022-08-19T22:34:43.915Z,11.20
2022-08-19T22:37:31.813Z,11.75
2022-08-19T22:40:18.815Z,6.85
2022-08-19T22:43:14.992Z,8.20
2022-08-19T22:46:01.248Z,12.02
2022-08-19T22:48:47.926Z,11.32
2022-08-19T22:51:59.907Z,14.70
2022-08-19T22:54:48.957Z,12.02
2022-08-19T22:57:34.544Z,9.30
2022-08-19T23:00:26.494Z,11.38
2022-08-19T23:03:13.139Z,10.45
2022-08-19T23:05:58.845Z,9.23
2022-08-19T23:08:44.795Z,7.70
2022-08-19T23:11:30.294Z,10.32
2022-08-19T23:14:17.610Z,9.65
2022-08-19T23:17:05.092Z,6.93
2022-08-19T23:19:51.078Z,7.75
2022-08-19T23:22:42.377Z,8.00
2022-08-19T23:25:30.739Z,6.28
2022-08-19T23:28:34.910Z,9.43
2022-08-19T23:31:21.549Z,9.18
2022-08-19T23:34:07.257Z,8.68
2022-08-19T23:36:53.238Z,4.30
2022-08-19T23:39:38.837Z,7.93
2022-08-19T23:42:26.835Z,10.45
2022-08-19T23:45:13.229Z,5.70
2022-08-19T23:48:00.239Z,8.52
2022-08-19T23:50:46.358Z,9.82
2022-08-19T23:53:32.599Z,13.18
2022-08-19T23:56:18.297Z,7.57
2022-08-19T23:59:04.042Z,7.97
